ADDS METAR Data INFO
IDs: Format: Raw Decoded Include TAF

Data at: 0354 UTC 19 Feb 2018

KLWV 190253Z AUTO 14008KT 10SM OVC045 07/02 A3006 RMK AO2 SLP179 T00720022 56017
KLWV 190153Z AUTO 16006KT 10SM SCT060 07/02 A3007 RMK AO2 SLP186 T00670017
KLWV 190053Z AUTO 13009KT 10SM CLR 07/01 A3007 RMK AO2 SLP185 T00720011
KLWV 182353Z AUTO 15008KT 10SM CLR 07/02 A3011 RMK AO2 SLP198 T00720022 10111 20072 56017
KLWV 182253Z AUTO 16008KT 10SM CLR 09/02 A3012 RMK AO2 SLP201 T00890022
KLWV 182153Z AUTO 17013KT 10SM CLR 11/01 A3013 RMK AO2 SLP205 T01060011
KLWV 182053Z AUTO 15014KT 10SM CLR 11/01 A3016 RMK AO2 SLP214 T01060006 56040
KLWV 181953Z AUTO 16011KT 10SM CLR 11/01 A3019 RMK AO2 SLP225 T01060011
KLWV 181853Z AUTO 16012KT 10SM CLR 09/01 A3023 RMK AO2 SLP239 T00890006
KLWV 181753Z AUTO 12008KT 10SM CLR 08/01 A3028 RMK AO2 SLP256 I6000 T00780011 10083 21028 58022
KLWV 181653Z AUTO 15009KT 10SM CLR 07/02 A3030 RMK AO2 SLP264 T00670017
KLWV 181553Z AUTO 15007KT 7SM CLR 04/02 A3033 RMK AO2 SLP273 T00440017
KLWV 181453Z AUTO 11007KT 6SM BR CLR 02/00 A3034 RMK AO2 SLP278 I3000 T00170000 50004
KLWV 181353Z AUTO 09003KT 4SM BR CLR 00/M01 A3036 RMK AO2 SLP283 I1000 T00001011
KLWV 181315Z AUTO 13003KT 3SM BR CLR M01/M02 A3034 RMK AO2 I1000 T10111017
KLWV 181253Z AUTO 13004KT 2SM BR FEW002 M02/M03 A3034 RMK AO2 SLP277 I1000 T10221028
KLWV 181242Z AUTO 13004KT 1 3/4SM BR FEW002 M02/M03 A3033 RMK AO2 T10221033
KLWV 181231Z AUTO 15005KT 2SM BR FEW002 M02/M03 A3033 RMK AO2 T10221033
KLWV 181153Z AUTO 06003KT 3SM BR CLR M02/M03 A3033 RMK AO2 SLP274 70009 I1001 I6003 T10221028 10006 21028 50012
KLWV 181053Z AUTO 09003KT 3SM BR CLR M03/M03 A3034 RMK AO2 SLP277 I1000 T10281033
KLWV 180953Z AUTO 20003KT 3SM BR CLR M02/M02 A3032 RMK AO2 SLP273 I1001 T10171022
KLWV 180853Z AUTO 00000KT 6SM BR CLR M02/M02 A3029 RMK AO2 SLP262 I1000 I3001 T10171022 53014
KLWV 180753Z AUTO 00000KT 4SM BR CLR M01/M01 A3028 RMK AO2 SLP258 T10061011
KLWV 180653Z AUTO 29004KT 6SM BR CLR 00/M01 A3026 RMK AO2 SLP252 I1001 T00001006
KLWV 180553Z AUTO 22004KT 5SM BR FEW014 00/M01 A3025 RMK AO2 SLP248 T00001006 10044 20000 400441011 51018
KLWV 180453Z AUTO 25005KT 7SM CLR 00/M01 A3025 RMK AO2 SLP246 T00001006
KLWV 180353Z AUTO 30005KT 9SM CLR 02/00 A3022 RMK AO2 SLP237 T00170000
KLWV 180253Z AUTO 26004KT 10SM CLR 02/01 A3020 RMK AO2 SLP229 T00220006 52031
KLWV 180153Z AUTO 32009KT 10SM FEW027 03/01 A3016 RMK AO2 SLP216 T00330006
KLWV 180144Z AUTO 32011KT 10SM FEW017 SCT027 03/01 A3016 RMK AO2 T00330011
KLWV 180101Z AUTO 29010KT 9SM SCT011 OVC028 04/03 A3014 RMK AO2 T00390028
KLWV 180053Z AUTO 29010KT 8SM BKN011 OVC026 04/03 A3014 RMK AO2 SLP210 T00390028
KLWV 172353Z AUTO 24010KT 6SM BR OVC011 03/03 A3010 RMK AO2 SLP197 60001 T00330028 10033 20006 53021
KLWV 172312Z AUTO 23009KT 3SM BR OVC005 03/03 A3008 RMK AO2 CIG 004V008 T00330028
KLWV 172253Z AUTO 22009KT 1SM BR OVC005 03/03 A3007 RMK AO2 CIG 004V010 SLP185 T00330028
KLWV 172225Z AUTO 21009KT 1 3/4SM BR OVC006 03/03 A3005 RMK AO2 T00330028
KLWV 172216Z AUTO 22010KT 3SM BR BKN006 OVC010 03/02 A3006 RMK AO2 T00280022
KLWV 172153Z AUTO 21007KT 2SM BR OVC005 03/02 A3005 RMK AO2 UPE2056B16E26 CIG 003V008 SLP179 P0000 T00280022
KLWV 172053Z AUTO 23008KT 1 1/2SM UP OVC005 03/ A3004 RMK AO2 UPB41 SLP177 P0000 60001 T0028 55013 $
KLWV 172043Z AUTO 22008KT 1 3/4SM UP OVC005 03/ A3004 RMK AO2 UPB41 P0000 T0028 $
KLWV 172019Z AUTO 19008KT 4SM HZ OVC005 02/ A3002 RMK AO2 T0022 $
KLWV 171953Z AUTO 19006KT 4SM HZ OVC004 02/ A3002 RMK AO2 UPE01 SLP169 P0000 T0022 $
KLWV 171922Z AUTO 18008KT 3SM BR OVC004 02/ A3001 RMK AO2 UPE01 P0000 T0017 $
KLWV 171905Z AUTO 18008KT 3SM BR OVC003 02/ A3002 RMK AO2 UPE01 P0000 T0017 $
KLWV 171853Z AUTO 18007KT 2 1/2SM UP OVC003 02/ A3003 RMK AO2 UPB20SNE20 SLP174 P0001 T0017 $
KLWV 171837Z AUTO 17008KT 2SM UP OVC003 01/ A3004 RMK AO2 UPB20SNE20 P0001 T0011 $
KLWV 171830Z AUTO 17008KT 1 3/4SM UP OVC003 01/ A3004 RMK AO2 UPB20SNE20 P0001 T0011 $
KLWV 171753Z AUTO 18005KT 1SM -SN OVC004 01/ A3008 RMK AO2 SLP190 P0001 60008 T0006 10011 20000 58018 $
KLWV 171724Z AUTO 14007KT 3/4SM -SN BR OVC004 01/01 A3007 RMK AO2 P0001 T00060006
KLWV 171653Z AUTO 15008KT 1/2SM SN FG SCT003 BKN007 OVC014 01/01 A3010 RMK AO2 SLP196 P0005 T00060006
KLWV 171650Z AUTO 15008KT 1/2SM SN FG BKN005 OVC014 01/01 A3010 RMK AO2 P0005
KLWV 171638Z AUTO 13006KT 1/2SM SN FG FEW002 OVC016 01/01 A3011 RMK AO2 P0004 T00060006
KLWV 171600Z AUTO 16005KT 1/4SM SN FG VV013 01/00 A3014 RMK AO2 P0000 T00060000